Time;durP1;ratioP1;P1;durP2;ratioP2;P2;SDS_P1;SDS_P2;PMS_P1;PMS_P2;Temp;Humidity;BMP_temperature;BMP_pressure;BME280_temperature;BME280_humidity;BME280_pressure;Samples;Min_cycle;Max_cycle;Signal;HPM_P1;HPM_P2
2022/07/12 00:02:12;;;;;;;12.00;10.20;;;17.10;99.90;;;;;;5020441;28;20188;-79
2022/07/12 00:04:38;;;;;;;12.13;10.87;;;17.00;99.90;;;;;;5020702;28;20223;-81
2022/07/12 00:07:04;;;;;;;11.77;10.57;;;17.00;99.90;;;;;;5020323;28;20269;-80
2022/07/12 00:09:29;;;;;;;16.57;11.20;;;16.90;99.90;;;;;;5020560;28;20231;-81
2022/07/12 00:11:58;;;;;;;12.23;10.00;;;16.80;99.90;;;;;;5020214;28;20506;-79
2022/07/12 00:14:25;;;;;;;13.20;10.23;;;16.80;99.90;;;;;;5019741;28;20255;-79
2022/07/12 00:16:51;;;;;;;13.07;10.40;;;16.80;99.90;;;;;;5019202;28;20952;-80
2022/07/12 00:19:17;;;;;;;13.30;10.47;;;16.70;99.90;;;;;;5020005;28;20509;-80
2022/07/12 00:21:43;;;;;;;13.70;10.67;;;16.70;99.90;;;;;;5019523;28;20522;-80
2022/07/12 00:24:09;;;;;;;13.80;11.90;;;16.80;99.90;;;;;;5019092;28;20883;-79
2022/07/12 00:26:35;;;;;;;11.77;10.57;;;16.70;99.90;;;;;;5018888;28;20233;-80
2022/07/12 00:29:01;;;;;;;15.57;11.33;;;16.60;99.90;;;;;;5017785;28;20215;-79
2022/07/12 00:31:27;;;;;;;13.10;10.80;;;16.70;99.90;;;;;;5019358;28;20473;-80
2022/07/12 00:33:53;;;;;;;13.30;10.93;;;16.60;99.90;;;;;;5019621;28;20427;-81
2022/07/12 00:36:19;;;;;;;11.53;10.00;;;16.60;99.90;;;;;;5020288;28;20177;-80
2022/07/12 00:38:45;;;;;;;12.53;10.00;;;16.60;99.90;;;;;;5020363;28;20200;-80
2022/07/12 00:41:11;;;;;;;11.90;10.57;;;16.60;99.90;;;;;;5020040;28;20450;-80
2022/07/12 00:43:37;;;;;;;14.23;11.00;;;16.50;99.90;;;;;;5019441;28;20922;-80
2022/07/12 00:46:03;;;;;;;13.40;10.87;;;16.40;99.90;;;;;;5020369;28;20191;-81
2022/07/12 00:48:35;;;;;;;13.00;10.77;;;16.40;99.90;;;;;;5020019;28;20477;-81
2022/07/12 00:51:01;;;;;;;12.70;10.40;;;16.40;99.90;;;;;;5019427;28;20434;-81
2022/07/12 00:53:27;;;;;;;13.80;10.40;;;16.30;99.90;;;;;;5019390;28;20415;-80
2022/07/12 00:55:57;;;;;;;11.87;10.03;;;16.20;99.90;;;;;;5019477;28;20945;-81
2022/07/12 00:58:24;;;;;;;12.83;10.20;;;16.20;99.90;;;;;;5019804;28;20479;-80
2022/07/12 01:00:50;;;;;;;15.10;10.40;;;16.20;99.90;;;;;;5019850;28;20419;-80
2022/07/12 01:03:17;;;;;;;12.53;10.23;;;16.10;99.90;;;;;;5019237;28;20485;-79
2022/07/12 01:05:44;;;;;;;12.40;10.10;;;16.00;99.90;;;;;;5019426;28;20828;-81
2022/07/12 01:08:12;;;;;;;15.17;10.00;;;16.00;99.90;;;;;;5019066;28;21000;-80
2022/07/12 01:10:39;;;;;;;15.00;10.10;;;16.00;99.90;;;;;;5018879;28;20419;-80
2022/07/12 01:13:06;;;;;;;11.60;9.93;;;16.10;99.90;;;;;;5018980;28;20474;-81
2022/07/12 01:15:32;;;;;;;12.90;10.50;;;16.00;99.90;;;;;;5018582;28;20415;-80
2022/07/12 01:18:00;;;;;;;14.33;11.43;;;16.00;99.90;;;;;;5018287;28;20446;-79
2022/07/12 01:20:27;;;;;;;13.40;10.03;;;16.00;99.90;;;;;;5018391;28;20427;-80
2022/07/12 01:22:54;;;;;;;12.70;10.37;;;15.90;99.90;;;;;;5017922;28;20521;-80
2022/07/12 01:25:20;;;;;;;13.50;10.77;;;15.90;99.90;;;;;;5017723;28;20431;-80
2022/07/12 01:27:46;;;;;;;12.60;10.57;;;15.80;99.90;;;;;;5017737;28;20454;-80
2022/07/12 01:30:12;;;;;;;14.20;11.90;;;15.90;99.90;;;;;;5018052;28;20419;-79
2022/07/12 01:32:39;;;;;;;12.47;10.70;;;15.90;99.90;;;;;;5017014;28;20248;-80
2022/07/12 01:35:06;;;;;;;12.47;10.23;;;15.90;99.90;;;;;;5017477;28;20191;-80
2022/07/12 01:37:43;;;;;;;12.17;10.57;;;15.90;99.90;;;;;;5017483;28;20497;-81
2022/07/12 01:40:11;;;;;;;13.03;11.00;;;15.90;99.90;;;;;;5017603;28;20791;-80
2022/07/12 01:42:38;;;;;;;12.50;10.37;;;15.80;99.90;;;;;;5019676;28;20492;-79
2022/07/12 01:45:06;;;;;;;14.83;11.10;;;15.80;99.90;;;;;;5025793;28;20423;-81
2022/07/12 01:47:33;;;;;;;12.80;10.20;;;15.70;99.90;;;;;;5025150;28;20435;-81
2022/07/12 01:49:59;;;;;;;12.80;10.47;;;15.70;99.90;;;;;;5024838;28;20426;-81
2022/07/12 01:52:25;;;;;;;12.27;10.37;;;15.70;99.90;;;;;;5024875;28;20806;-80
2022/07/12 01:54:52;;;;;;;12.80;11.07;;;15.80;99.90;;;;;;5024276;28;20415;-80
2022/07/12 01:57:19;;;;;;;11.87;10.40;;;15.70;99.90;;;;;;5023738;28;20442;-81
2022/07/12 01:59:45;;;;;;;12.70;10.70;;;15.60;99.90;;;;;;5023267;28;20411;-81
2022/07/12 02:02:11;;;;;;;11.80;10.03;;;15.60;99.90;;;;;;5022864;28;20853;-80
2022/07/12 02:04:37;;;;;;;11.13;9.37;;;15.60;99.90;;;;;;5022421;28;20423;-81
2022/07/12 02:07:04;;;;;;;13.57;10.60;;;15.60;99.90;;;;;;5021949;28;20567;-81
2022/07/12 02:09:30;;;;;;;13.47;10.33;;;15.60;99.90;;;;;;5021474;28;20443;-81
2022/07/12 02:11:56;;;;;;;12.20;10.20;;;15.60;99.90;;;;;;5021450;28;20467;-81
2022/07/12 02:14:22;;;;;;;12.93;10.30;;;15.60;99.90;;;;;;5021478;28;20450;-80
2022/07/12 02:16:48;;;;;;;11.23;9.87;;;15.60;99.90;;;;;;5021205;28;20187;-81
2022/07/12 02:19:14;;;;;;;13.53;9.80;;;15.60;99.90;;;;;;5020421;28;20236;-79
2022/07/12 02:21:40;;;;;;;13.03;10.63;;;15.50;99.90;;;;;;5020247;28;20180;-81
2022/07/12 02:24:07;;;;;;;13.37;10.50;;;15.40;99.90;;;;;;5020508;28;20430;-80
2022/07/12 02:26:34;;;;;;;11.70;9.83;;;15.50;99.90;;;;;;5019886;28;20423;-81
2022/07/12 02:29:01;;;;;;;11.57;9.83;;;15.50;99.90;;;;;;5019510;28;20498;-80
2022/07/12 02:31:27;;;;;;;12.80;10.00;;;15.40;99.90;;;;;;5019740;28;20463;-81
2022/07/12 02:33:53;;;;;;;12.63;9.90;;;15.30;99.90;;;;;;5018907;28;20780;-80
2022/07/12 02:36:22;;;;;;;12.07;9.90;;;15.30;99.90;;;;;;5018653;28;20424;-80
2022/07/12 02:38:48;;;;;;;11.90;10.40;;;15.30;99.90;;;;;;5018521;28;20192;-81
2022/07/12 02:41:14;;;;;;;12.87;10.10;;;15.20;99.90;;;;;;5018490;28;20423;-81
2022/07/12 02:43:39;;;;;;;12.40;9.00;;;15.10;99.90;;;;;;5018355;28;20430;-79
2022/07/12 02:46:07;;;;;;;11.17;9.33;;;15.10;99.90;;;;;;5018049;28;20246;-80
2022/07/12 02:48:33;;;;;;;11.67;10.00;;;15.10;99.90;;;;;;5016836;28;20229;-80
2022/07/12 02:51:01;;;;;;;12.27;10.23;;;14.90;99.90;;;;;;5015864;28;20425;-80
2022/07/12 02:53:26;;;;;;;10.07;8.93;;;14.90;99.90;;;;;;5016462;28;20455;-79
2022/07/12 02:55:52;;;;;;;11.60;9.03;;;15.00;99.90;;;;;;5016538;28;20411;-80
2022/07/12 02:58:18;;;;;;;10.10;8.40;;;15.00;99.90;;;;;;5016036;28;20200;-81
2022/07/12 03:00:44;;;;;;;9.53;7.57;;;14.90;99.90;;;;;;5016030;28;20423;-80
2022/07/12 03:03:14;;;;;;;11.23;8.33;;;14.90;99.90;;;;;;5016028;28;20455;-81
2022/07/12 03:05:40;;;;;;;9.67;7.27;;;14.80;99.90;;;;;;5016092;28;20559;-80
2022/07/12 03:08:07;;;;;;;10.10;8.27;;;14.80;99.90;;;;;;5015881;28;20469;-80
2022/07/12 03:10:34;;;;;;;12.17;8.63;;;14.80;99.90;;;;;;5015977;28;20415;-80
2022/07/12 03:13:00;;;;;;;10.73;8.67;;;14.70;99.90;;;;;;5015703;28;20834;-79
2022/07/12 03:15:30;;;;;;;8.47;7.40;;;14.80;99.90;;;;;;4999487;28;20451;-80
2022/07/12 03:17:57;;;;;;;11.20;8.90;;;14.80;99.90;;;;;;5015626;28;20454;-80
2022/07/12 03:20:24;;;;;;;10.43;8.70;;;14.80;99.90;;;;;;5015713;28;20825;-79
2022/07/12 03:22:51;;;;;;;9.30;8.30;;;14.90;99.90;;;;;;5015795;28;21001;-80
2022/07/12 03:25:18;;;;;;;10.43;9.00;;;14.90;99.90;;;;;;5015532;28;20427;-80
2022/07/12 03:27:44;;;;;;;10.40;8.37;;;14.90;99.90;;;;;;5015793;28;20439;-80
2022/07/12 03:30:11;;;;;;;10.00;8.30;;;14.90;99.90;;;;;;5015883;28;20427;-80
2022/07/12 03:32:38;;;;;;;9.93;8.27;;;14.90;99.90;;;;;;5015528;28;20533;-80
2022/07/12 03:35:05;;;;;;;10.60;8.23;;;14.80;99.90;;;;;;5015674;28;20415;-79
2022/07/12 03:37:49;;;;;;;10.07;7.73;;;14.80;99.90;;;;;;5015557;28;20812;-79
2022/07/12 03:40:17;;;;;;;12.37;8.90;;;14.70;99.90;;;;;;5015265;28;20419;-81
2022/07/12 03:42:43;;;;;;;11.60;9.30;;;14.70;99.90;;;;;;5015245;28;20946;-81
2022/07/12 03:45:10;;;;;;;9.53;8.50;;;14.80;99.90;;;;;;5015949;28;20419;-80
2022/07/12 03:47:37;;;;;;;12.20;9.27;;;14.80;99.90;;;;;;5015314;28;20524;-80
2022/07/12 03:50:12;;;;;;;10.53;9.03;;;14.60;99.90;;;;;;5015548;28;20845;-80
2022/07/12 03:52:38;;;;;;;11.57;8.33;;;14.70;99.90;;;;;;5015030;28;20544;-80
2022/07/12 03:55:04;;;;;;;13.33;9.00;;;14.70;99.90;;;;;;5014662;28;20415;-79
2022/07/12 03:57:30;;;;;;;12.43;8.43;;;14.80;99.90;;;;;;5015232;28;20478;-79
2022/07/12 03:59:56;;;;;;;10.60;8.13;;;14.80;99.90;;;;;;5014828;28;20469;-80
2022/07/12 04:02:23;;;;;;;9.83;8.00;;;14.80;99.90;;;;;;5015057;28;20250;-80
2022/07/12 04:04:49;;;;;;;11.93;9.00;;;14.80;99.90;;;;;;5018576;28;20818;-80
2022/07/12 04:07:15;;;;;;;9.33;7.90;;;14.90;99.90;;;;;;5018900;28;20450;-81
2022/07/12 04:09:40;;;;;;;11.00;7.97;;;15.00;99.90;;;;;;5031970;22;20591;-76
2022/07/12 04:12:07;;;;;;;9.10;7.83;;;15.00;99.90;;;;;;5017104;28;20207;-76
2022/07/12 04:14:33;;;;;;;10.20;8.50;;;15.00;99.90;;;;;;5016973;28;20180;-76
2022/07/12 04:16:59;;;;;;;10.87;8.20;;;15.00;99.90;;;;;;5016844;28;20430;-76
2022/07/12 04:19:27;;;;;;;9.93;8.80;;;15.00;99.90;;;;;;5017007;28;20423;-75
2022/07/12 04:21:57;;;;;;;12.23;8.60;;;15.10;99.90;;;;;;5016939;28;20503;-76
2022/07/12 04:24:23;;;;;;;10.77;7.97;;;15.20;99.90;;;;;;5016966;28;20521;-76
2022/07/12 04:26:49;;;;;;;10.33;8.00;;;15.20;99.90;;;;;;5016430;28;20502;-76
2022/07/12 04:29:19;;;;;;;10.13;7.97;;;15.10;99.90;;;;;;5016924;28;20188;-76
2022/07/12 04:31:44;;;;;;;12.50;9.23;;;15.20;99.90;;;;;;5016863;28;20265;-76
2022/07/12 04:34:10;;;;;;;11.30;8.77;;;15.30;99.90;;;;;;5016752;28;20526;-76
2022/07/12 04:36:36;;;;;;;15.10;9.70;;;15.30;99.90;;;;;;5016392;28;20176;-76
2022/07/12 04:39:03;;;;;;;11.80;8.90;;;15.40;99.90;;;;;;5016546;28;20575;-76
2022/07/12 04:41:28;;;;;;;11.00;8.30;;;15.40;99.90;;;;;;5016647;28;20647;-76
2022/07/12 04:43:54;;;;;;;11.43;8.53;;;15.50;99.90;;;;;;5016482;28;20423;-76
2022/07/12 04:46:20;;;;;;;12.90;9.83;;;15.60;99.90;;;;;;5016299;28;20271;-75
2022/07/12 04:48:45;;;;;;;15.37;11.10;;;15.70;99.90;;;;;;5016370;28;20235;-75
2022/07/12 04:51:11;;;;;;;12.27;10.83;;;15.80;99.90;;;;;;5016596;28;20184;-76
2022/07/12 04:53:37;;;;;;;14.17;11.03;;;15.80;99.90;;;;;;5016390;28;20632;-76
2022/07/12 04:56:03;;;;;;;12.93;10.70;;;15.90;99.90;;;;;;5016061;28;20408;-76
2022/07/12 04:58:29;;;;;;;12.43;10.57;;;16.00;99.90;;;;;;5016218;28;20200;-75
2022/07/12 05:00:55;;;;;;;12.30;10.57;;;16.10;99.90;;;;;;5016209;28;20427;-76
2022/07/12 05:03:20;;;;;;;13.90;11.00;;;16.20;99.90;;;;;;5016248;28;20176;-76
2022/07/12 05:05:46;;;;;;;12.17;10.50;;;16.30;99.90;;;;;;5015906;28;20267;-76
2022/07/12 05:08:12;;;;;;;13.83;10.73;;;16.40;99.90;;;;;;5016003;28;20254;-75
2022/07/12 05:10:38;;;;;;;12.30;11.00;;;16.50;99.90;;;;;;5015981;28;20703;-76
2022/07/12 05:13:04;;;;;;;13.53;10.70;;;16.50;99.90;;;;;;5015979;28;20262;-76
2022/07/12 05:15:30;;;;;;;13.27;9.80;;;16.50;99.90;;;;;;5015600;28;20183;-76
2022/07/12 05:17:55;;;;;;;12.37;10.20;;;16.60;99.90;;;;;;5015990;28;20439;-76
2022/07/12 05:20:21;;;;;;;16.23;10.53;;;16.60;99.90;;;;;;5015903;28;20180;-76
2022/07/12 05:22:47;;;;;;;10.57;8.90;;;16.60;99.90;;;;;;5015952;28;20276;-76
2022/07/12 05:25:13;;;;;;;15.63;10.63;;;16.80;99.90;;;;;;5015702;28;20213;-76
2022/07/12 05:27:39;;;;;;;14.30;10.17;;;16.90;99.90;;;;;;5015328;28;20266;-76
2022/07/12 05:30:05;;;;;;;16.33;11.37;;;16.90;99.90;;;;;;5015681;28;20184;-76
2022/07/12 05:32:31;;;;;;;12.93;10.23;;;17.00;99.90;;;;;;5015508;28;20212;-75
2022/07/12 05:34:58;;;;;;;12.97;11.47;;;17.10;99.90;;;;;;5015596;28;20562;-76
2022/07/12 05:37:25;;;;;;;15.27;10.90;;;17.20;99.90;;;;;;5015069;28;20968;-76
2022/07/12 05:39:51;;;;;;;15.33;11.83;;;17.30;99.90;;;;;;5015587;28;20425;-76
2022/07/12 05:42:17;;;;;;;16.20;11.53;;;17.40;99.90;;;;;;5015516;28;20431;-76
2022/07/12 05:44:43;;;;;;;13.77;11.57;;;17.50;99.90;;;;;;5015460;28;20412;-76
2022/07/12 05:47:08;;;;;;;15.00;13.03;;;17.60;99.90;;;;;;5015033;28;20629;-76
2022/07/12 05:49:34;;;;;;;17.33;11.90;;;17.70;99.90;;;;;;5015379;28;20181;-76
2022/07/12 05:54:44;;;;;;;14.87;11.53;;;17.90;99.90;;;;;;5033349;28;20275;-76
2022/07/12 05:57:11;;;;;;;14.80;12.10;;;18.00;99.90;;;;;;5014892;28;20475;-75
2022/07/12 05:59:36;;;;;;;13.30;11.47;;;18.10;99.90;;;;;;5015424;28;20267;-76
2022/07/12 06:02:03;;;;;;;14.10;11.93;;;18.20;99.90;;;;;;5015055;28;20514;-76
2022/07/12 06:04:29;;;;;;;14.70;12.47;;;18.30;99.90;;;;;;5015081;28;20261;-76
2022/07/12 06:06:56;;;;;;;21.43;15.00;;;18.40;99.90;;;;;;5014710;28;20454;-76
2022/07/12 06:09:21;;;;;;;18.03;13.63;;;18.50;99.90;;;;;;5014954;28;20211;-75
2022/07/12 06:11:47;;;;;;;15.67;14.07;;;18.60;99.90;;;;;;5014815;28;20459;-76
2022/07/12 06:14:13;;;;;;;16.70;13.10;;;18.70;99.90;;;;;;5015011;28;20193;-76
2022/07/12 06:16:39;;;;;;;17.33;12.80;;;18.80;99.90;;;;;;5014523;28;20272;-76
2022/07/12 06:19:05;;;;;;;15.90;12.83;;;18.90;99.90;;;;;;5014705;28;20575;-76
2022/07/12 06:21:30;;;;;;;13.53;11.97;;;19.00;99.90;;;;;;5014734;28;20655;-76
2022/07/12 06:23:56;;;;;;;15.60;11.07;;;19.10;99.90;;;;;;5014744;28;20184;-75
2022/07/12 06:26:22;;;;;;;15.40;11.90;;;19.20;99.90;;;;;;5013713;28;20224;-76
2022/07/12 06:28:48;;;;;;;15.53;12.07;;;19.30;99.90;;;;;;5014641;28;20358;-76
2022/07/12 06:31:13;;;;;;;19.10;13.83;;;19.40;99.90;;;;;;5014441;28;20207;-76
2022/07/12 06:33:39;;;;;;;18.00;13.50;;;19.60;99.90;;;;;;5014536;28;20180;-76
2022/07/12 06:36:05;;;;;;;17.63;13.37;;;19.60;99.90;;;;;;5014431;28;20565;-76
2022/07/12 06:38:31;;;;;;;14.80;12.60;;;19.70;99.90;;;;;;5014414;28;20683;-76
2022/07/12 06:40:57;;;;;;;17.23;12.43;;;19.70;99.90;;;;;;5014305;28;20235;-75
2022/07/12 06:43:22;;;;;;;15.77;11.43;;;19.80;99.90;;;;;;5014493;28;20566;-75
2022/07/12 06:45:48;;;;;;;14.80;12.27;;;19.90;99.90;;;;;;5014138;28;20184;-76
2022/07/12 06:48:14;;;;;;;16.10;12.40;;;20.00;99.90;;;;;;5014141;28;20232;-76
2022/07/12 06:50:40;;;;;;;15.70;13.07;;;20.10;99.90;;;;;;5014375;28;20647;-76
2022/07/12 06:53:06;;;;;;;16.77;14.07;;;20.20;99.90;;;;;;5014178;28;20216;-76
2022/07/12 06:55:31;;;;;;;18.47;13.40;;;20.30;99.90;;;;;;5014128;28;20234;-77
2022/07/12 06:57:57;;;;;;;16.20;12.97;;;20.40;99.90;;;;;;5013818;28;20206;-76
2022/07/12 07:00:23;;;;;;;18.70;14.30;;;20.50;99.90;;;;;;5014213;28;20219;-76
2022/07/12 07:02:49;;;;;;;14.07;12.30;;;20.60;99.90;;;;;;5014015;28;20423;-75
2022/07/12 07:05:15;;;;;;;15.30;11.37;;;20.80;99.90;;;;;;5014151;28;20578;-75
2022/07/12 07:07:41;;;;;;;14.53;11.93;;;20.90;99.90;;;;;;5013726;28;20200;-76
2022/07/12 07:10:07;;;;;;;14.80;11.60;;;20.90;99.90;;;;;;5013947;28;20438;-76
2022/07/12 07:12:33;;;;;;;14.33;11.00;;;21.00;99.90;;;;;;5013920;28;20506;-75
2022/07/12 07:14:59;;;;;;;14.80;13.20;;;21.00;99.90;;;;;;5013912;28;20458;-76
2022/07/12 07:17:24;;;;;;;15.00;11.80;;;21.10;99.90;;;;;;5013542;28;20670;-76
2022/07/12 07:19:50;;;;;;;14.73;12.37;;;21.20;99.90;;;;;;5014036;28;20203;-77
2022/07/12 07:22:16;;;;;;;12.97;10.47;;;21.30;99.90;;;;;;5014020;28;20227;-76
2022/07/12 07:24:42;;;;;;;11.83;10.40;;;21.40;99.90;;;;;;5013932;28;20710;-76
2022/07/12 07:27:08;;;;;;;12.27;10.47;;;21.60;99.90;;;;;;5013529;28;20212;-76
2022/07/12 07:32:18;;;;;;;12.60;10.57;;;21.90;99.90;;;;;;5031623;28;20503;-76
2022/07/12 07:34:45;;;;;;;13.70;9.83;;;22.00;99.90;;;;;;5013957;28;20423;-76
2022/07/12 07:37:11;;;;;;;12.27;9.80;;;22.00;99.90;;;;;;5014449;28;20694;-75
2022/07/12 07:39:36;;;;;;;11.90;9.50;;;22.10;99.90;;;;;;5017811;28;20431;-77
2022/07/12 07:42:03;;;;;;;11.50;9.13;;;22.20;99.90;;;;;;5017605;28;20419;-76
2022/07/12 07:44:29;;;;;;;13.40;10.13;;;22.20;99.90;;;;;;5017745;28;20189;-76
2022/07/12 07:46:55;;;;;;;14.63;12.13;;;22.40;99.90;;;;;;5017224;28;20423;-76
2022/07/12 07:49:20;;;;;;;12.73;11.37;;;22.50;99.90;;;;;;5017563;28;20184;-76
2022/07/12 07:51:46;;;;;;;14.00;12.50;;;22.50;99.90;;;;;;5017418;28;20582;-76
2022/07/12 07:54:12;;;;;;;18.10;13.07;;;22.60;99.90;;;;;;5017523;28;20185;-75
2022/07/12 07:56:38;;;;;;;13.83;11.50;;;22.70;99.90;;;;;;5017243;28;20714;-75
2022/07/12 07:59:03;;;;;;;13.27;11.70;;;22.80;99.90;;;;;;5017299;28;20624;-76
2022/07/12 08:01:45;;;;;;;11.97;10.10;;;22.80;99.90;;;;;;5017414;28;20553;-76
2022/07/12 08:04:16;;;;;;;11.47;9.90;;;22.90;99.90;;;;;;5017373;28;20195;-76
2022/07/12 08:06:42;;;;;;;12.33;9.37;;;23.10;99.90;;;;;;5017096;28;20434;-76
2022/07/12 08:09:09;;;;;;;10.30;9.10;;;23.30;99.90;;;;;;5018266;28;20977;-76
2022/07/12 08:11:35;;;;;;;10.03;8.33;;;23.40;99.90;;;;;;5017065;28;20814;-76
2022/07/12 08:14:02;;;;;;;13.03;8.20;;;23.80;99.90;;;;;;5017057;28;20510;-76
2022/07/12 08:16:27;;;;;;;11.50;9.67;;;24.80;99.90;;;;;;5016803;28;20427;-77
2022/07/12 08:18:54;;;;;;;12.17;8.80;;;26.00;99.90;;;;;;5016889;28;20492;-76
2022/07/12 08:21:20;;;;;;;10.43;7.50;;;26.90;99.90;;;;;;5016977;28;20183;-76
2022/07/12 08:23:45;;;;;;;7.80;7.00;;;27.80;99.90;;;;;;5016770;28;20894;-76
2022/07/12 08:26:11;;;;;;;10.60;8.13;;;28.70;99.90;;;;;;5016706;28;20415;-76
2022/07/12 08:28:37;;;;;;;11.10;8.30;;;29.10;99.90;;;;;;5016687;28;20578;-76
2022/07/12 08:31:03;;;;;;;9.43;7.37;;;29.70;99.90;;;;;;5016926;28;20195;-76
2022/07/12 08:33:29;;;;;;;8.67;7.83;;;30.30;99.90;;;;;;5016790;28;20184;-77
2022/07/12 08:35:54;;;;;;;9.80;7.63;;;30.90;99.90;;;;;;5016597;28;20663;-76
2022/07/12 08:38:20;;;;;;;8.13;6.77;;;31.80;99.90;;;;;;5016450;28;20443;-76
2022/07/12 08:40:46;;;;;;;7.60;6.90;;;32.50;99.90;;;;;;5016630;28;20187;-76
2022/07/12 08:43:12;;;;;;;7.37;6.43;;;33.20;98.50;;;;;;5016525;28;20269;-76
2022/07/12 08:45:40;;;;;;;7.80;7.00;;;34.00;93.90;;;;;;5016391;28;20238;-77
2022/07/12 08:48:07;;;;;;;8.47;7.67;;;34.60;91.30;;;;;;5016318;28;20454;-76
2022/07/12 08:50:33;;;;;;;6.70;6.10;;;35.00;81.70;;;;;;5015951;28;20427;-76
2022/07/12 08:52:59;;;;;;;7.53;6.87;;;35.20;79.30;;;;;;5016262;28;20891;-76
2022/07/12 08:55:26;;;;;;;7.47;6.70;;;35.30;76.80;;;;;;5016365;28;20465;-76
2022/07/12 08:57:53;;;;;;;5.73;5.13;;;;;;;;;;5016020;28;20442;-76
2022/07/12 09:00:20;;;;;;;5.73;5.13;;;36.80;68.60;;;;;;5016345;28;20934;-76
2022/07/12 09:02:49;;;;;;;7.20;5.47;;;37.50;67.10;;;;;;5016221;28;20851;-77
2022/07/12 09:05:16;;;;;;;6.57;4.80;;;37.60;59.60;;;;;;5016219;28;20437;-76
2022/07/12 09:07:43;;;;;;;9.07;5.07;;;37.30;58.90;;;;;;5015649;28;20450;-77
2022/07/12 09:10:11;;;;;;;5.53;4.97;;;36.90;59.00;;;;;;5016117;28;20824;-76
2022/07/12 09:12:37;;;;;;;5.10;4.60;;;37.10;58.90;;;;;;5016109;28;20477;-76
2022/07/12 09:15:22;;;;;;;5.67;5.17;;;37.50;57.00;;;;;;5016149;28;20418;-76
2022/07/12 09:18:14;;;;;;;4.67;4.03;;;38.10;56.10;;;;;;5015738;28;20435;-76
2022/07/12 09:20:41;;;;;;;4.00;2.87;;;38.90;53.90;;;;;;5016039;28;20506;-76
2022/07/12 09:23:11;;;;;;;4.60;3.33;;;39.50;51.10;;;;;;5015884;28;20419;-76
2022/07/12 09:25:44;;;;;;;3.20;2.40;;;40.00;53.20;;;;;;5016144;28;21011;-76
2022/07/12 09:28:11;;;;;;;5.10;3.77;;;40.60;49.20;;;;;;5016097;28;20449;-77
2022/07/12 09:30:47;;;;;;;3.50;2.87;;;40.90;46.70;;;;;;5015916;28;20491;-76
2022/07/12 09:36:07;;;;;;;4.67;4.20;;;41.20;45.30;;;;;;5033994;28;20536;-76
2022/07/12 09:38:33;;;;;;;3.10;2.80;;;41.60;43.10;;;;;;5015839;28;20504;-76
2022/07/12 09:41:00;;;;;;;6.80;4.70;;;41.90;44.00;;;;;;5016234;28;20406;-77
2022/07/12 09:43:27;;;;;;;5.60;5.10;;;42.10;42.80;;;;;;5015741;28;20179;-76
2022/07/12 09:45:53;;;;;;;4.90;4.40;;;42.30;41.40;;;;;;5015713;28;20651;-77
2022/07/12 09:48:21;;;;;;;5.07;4.50;;;42.40;41.50;;;;;;5015929;28;20207;-76
2022/07/12 09:50:51;;;;;;;4.90;4.20;;;42.80;40.50;;;;;;5016154;28;20201;-77
2022/07/12 09:53:30;;;;;;;5.32;4.60;;;43.30;41.10;;;;;;5015686;28;20592;-77
2022/07/12 09:55:56;;;;;;;5.20;4.70;;;43.80;40.90;;;;;;5015788;28;20597;-77
2022/07/12 09:58:29;;;;;;;5.28;4.60;;;44.30;45.80;;;;;;5015945;28;20195;-77
2022/07/12 10:00:59;;;;;;;5.35;4.85;;;44.50;40.30;;;;;;5015220;28;20662;-76
2022/07/12 10:03:31;;;;;;;5.43;4.85;;;44.50;39.30;;;;;;5016080;28;20333;-77
2022/07/12 10:05:59;;;;;;;5.03;4.53;;;44.40;41.70;;;;;;5015457;28;20183;-77
2022/07/12 10:08:26;;;;;;;5.38;4.88;;;44.30;39.60;;;;;;5015870;28;20686;-77
2022/07/12 10:10:52;;;;;;;4.97;4.47;;;44.50;39.40;;;;;;5051847;23;20245;-82
2022/07/12 10:13:19;;;;;;;4.53;4.07;;;44.00;39.30;;;;;;5043777;28;20198;-79
2022/07/12 10:15:47;;;;;;;4.40;4.00;;;43.20;40.20;;;;;;5044024;28;20186;-79
2022/07/12 10:18:20;;;;;;;6.50;5.10;;;41.80;40.20;;;;;;5043306;28;20233;-77
2022/07/12 10:20:50;;;;;;;5.53;5.03;;;41.70;37.50;;;;;;5060620;28;20206;-79
2022/07/12 10:23:30;;;;;;;5.53;5.00;;;41.20;37.80;;;;;;5060422;28;20678;-79
2022/07/12 10:25:56;;;;;;;5.20;4.70;;;40.90;39.90;;;;;;5060044;28;20413;-79
2022/07/12 10:28:22;;;;;;;4.60;3.87;;;41.30;39.90;;;;;;5059404;28;20476;-80
2022/07/12 10:30:49;;;;;;;4.43;4.00;;;41.30;39.20;;;;;;5060820;28;20179;-79
2022/07/12 10:33:15;;;;;;;4.37;3.97;;;41.20;38.80;;;;;;5060164;28;20893;-79
2022/07/12 10:36:06;;;;;;;4.30;3.90;;;41.40;38.80;;;;;;5059532;28;20418;-79
2022/07/12 10:38:33;;;;;;;4.57;4.03;;;42.00;37.50;;;;;;5059220;28;20206;-79
2022/07/12 10:41:24;;;;;;;4.63;3.40;;;41.90;38.50;;;;;;5060323;28;20599;-79
2022/07/12 10:44:05;;;;;;;3.40;3.10;;;41.60;38.10;;;;;;5060478;28;20250;-79
2022/07/12 10:46:33;;;;;;;4.40;3.90;;;41.50;37.00;;;;;;5060105;28;20247;-80
2022/07/12 10:49:27;;;;;;;4.60;3.97;;;41.10;36.60;;;;;;5059939;28;20587;-80
2022/07/12 10:52:11;;;;;;;4.13;3.70;;;40.70;37.60;;;;;;5058744;28;20240;-80
2022/07/12 10:54:39;;;;;;;5.60;4.00;;;39.30;37.90;;;;;;5058707;28;20414;-78
2022/07/12 10:57:05;;;;;;;3.67;3.10;;;37.60;37.90;;;;;;5059814;28;20425;-79
2022/07/12 10:59:34;;;;;;;4.27;2.77;;;36.30;41.10;;;;;;5058235;28;20941;-78
2022/07/12 11:02:00;;;;;;;4.20;3.00;;;35.30;41.20;;;;;;5058371;28;20246;-78
2022/07/12 11:04:29;;;;;;;4.57;3.30;;;34.50;42.60;;;;;;5057674;28;20414;-78
2022/07/12 11:06:57;;;;;;;4.10;3.47;;;33.80;44.00;;;;;;5058396;28;20430;-79
2022/07/12 11:09:24;;;;;;;2.90;2.50;;;33.30;43.00;;;;;;5057357;28;20441;-79
2022/07/12 11:11:52;;;;;;;4.30;3.50;;;33.10;44.80;;;;;;5056708;28;20426;-78
2022/07/12 11:14:32;;;;;;;4.07;3.27;;;33.30;44.50;;;;;;5056292;28;20425;-79
2022/07/12 11:16:59;;;;;;;4.00;3.03;;;33.50;43.60;;;;;;5055753;28;20505;-81
2022/07/12 11:19:28;;;;;;;6.70;3.40;;;33.50;44.50;;;;;;5055485;28;20765;-81
2022/07/12 11:21:58;;;;;;;4.40;3.10;;;33.30;43.70;;;;;;5055408;28;20449;-81
2022/07/12 11:24:29;;;;;;;5.40;3.10;;;33.40;44.30;;;;;;5056153;28;20422;-82
2022/07/12 11:26:55;;;;;;;4.30;2.77;;;33.40;43.60;;;;;;5055547;28;20425;-81
2022/07/12 11:29:22;;;;;;;3.93;3.53;;;33.10;43.00;;;;;;5054893;28;20429;-82
2022/07/12 11:31:48;;;;;;;4.50;3.73;;;32.80;42.90;;;;;;5056616;28;20415;-82
2022/07/12 11:34:22;;;;;;;3.67;2.90;;;32.10;43.80;;;;;;5056315;28;20422;-80
2022/07/12 11:36:55;;;;;;;3.93;3.13;;;31.50;45.40;;;;;;5055255;28;20835;-82
2022/07/12 11:39:38;;;;;;;3.60;3.10;;;31.30;48.30;;;;;;5055105;28;20867;-80
2022/07/12 11:42:05;;;;;;;3.77;3.33;;;31.20;48.70;;;;;;5055316;28;20819;-82
2022/07/12 11:44:53;;;;;;;4.53;3.17;;;30.90;48.20;;;;;;5054070;28;20421;-80
2022/07/12 11:47:21;;;;;;;5.47;3.07;;;30.60;48.50;;;;;;5054139;28;20909;-81
2022/07/12 11:49:50;;;;;;;4.60;3.70;;;30.40;48.50;;;;;;5054404;28;20457;-80
2022/07/12 11:52:17;;;;;;;3.53;3.07;;;30.50;48.60;;;;;;5053235;28;20421;-81
2022/07/12 11:54:44;;;;;;;3.10;2.40;;;30.40;47.10;;;;;;5053339;28;20422;-81
2022/07/12 11:57:12;;;;;;;3.87;2.97;;;30.20;47.30;;;;;;5053962;28;20488;-81
2022/07/12 11:59:38;;;;;;;3.80;3.00;;;30.30;48.30;;;;;;5053401;28;20823;-81
2022/07/12 12:02:08;;;;;;;3.63;3.00;;;30.50;50.20;;;;;;5052945;28;20508;-81
2022/07/12 12:04:50;;;;;;;3.67;3.27;;;30.60;48.10;;;;;;5052510;28;20639;-81
2022/07/12 12:07:17;;;;;;;4.70;3.60;;;30.60;48.70;;;;;;5051772;28;20430;-81
2022/07/12 12:10:16;;;;;;;4.30;3.63;;;30.50;49.20;;;;;;5051662;28;20823;-81
2022/07/12 12:12:53;;;;;;;3.73;3.10;;;30.50;50.50;;;;;;5053321;28;20466;-80
2022/07/12 12:15:31;;;;;;;3.03;2.60;;;30.50;50.40;;;;;;5052930;28;20944;-81
2022/07/12 12:18:07;;;;;;;3.33;2.50;;;30.50;49.80;;;;;;5053433;28;20460;-81
2022/07/12 12:20:36;;;;;;;3.80;3.00;;;30.60;49.80;;;;;;5054776;28;20420;-81
2022/07/12 12:23:04;;;;;;;4.10;3.10;;;30.80;49.30;;;;;;5059488;28;20430;-81
2022/07/12 12:25:32;;;;;;;3.50;2.50;;;30.80;46.50;;;;;;5061605;28;20425;-81
2022/07/12 12:28:04;;;;;;;3.90;2.93;;;30.80;48.20;;;;;;5062215;28;20488;-81
2022/07/12 12:30:32;;;;;;;3.40;2.50;;;30.90;48.80;;;;;;5062688;28;20437;-81
2022/07/12 12:33:03;;;;;;;3.93;2.80;;;30.80;48.10;;;;;;5061325;28;20607;-81
2022/07/12 12:35:39;;;;;;;4.80;2.43;;;30.80;47.70;;;;;;5061397;28;20948;-81
2022/07/12 12:38:15;;;;;;;3.20;2.13;;;31.00;49.30;;;;;;5061254;28;20461;-81
2022/07/12 12:40:50;;;;;;;3.20;2.20;;;31.10;47.70;;;;;;5061263;28;20425;-81
2022/07/12 12:43:20;;;;;;;3.10;2.60;;;31.20;48.50;;;;;;5060532;28;20414;-81
2022/07/12 12:45:54;;;;;;;4.53;2.53;;;31.30;48.80;;;;;;5061484;28;20421;-81
2022/07/12 12:48:28;;;;;;;2.97;2.10;;;31.40;47.20;;;;;;5057721;28;20472;-80